createdAt,value
2023-05-19T00:02:10.074Z,59.21
2023-05-19T00:04:40.721Z,59.59
2023-05-19T00:07:12.001Z,59.88
2023-05-19T00:09:42.911Z,60.09
2023-05-19T00:12:14.794Z,59.76
2023-05-19T00:14:45.345Z,60.07
2023-05-19T00:17:16.848Z,60.27
2023-05-19T00:19:47.101Z,60.40
2023-05-19T00:22:17.297Z,60.83
2023-05-19T00:24:47.563Z,60.48
2023-05-19T00:27:18.028Z,60.54
2023-05-19T00:29:48.301Z,60.48
2023-05-19T00:32:18.907Z,61.10
2023-05-19T00:34:49.498Z,61.23
2023-05-19T00:37:20.534Z,61.21
2023-05-19T00:39:50.720Z,61.29
2023-05-19T00:42:21.303Z,61.32
2023-05-19T00:44:51.533Z,61.38
2023-05-19T00:47:21.811Z,61.20
2023-05-19T00:49:52.058Z,61.42
2023-05-19T00:52:22.247Z,62.01
2023-05-19T00:54:52.634Z,61.79
2023-05-19T00:57:23.054Z,61.47
2023-05-19T00:59:53.515Z,61.72
2023-05-19T01:02:23.968Z,61.80
2023-05-19T01:04:56.258Z,61.57
2023-05-19T01:07:27.368Z,61.91
2023-05-19T01:09:58.378Z,62.31
2023-05-19T01:12:28.587Z,62.13
2023-05-19T01:14:59.859Z,62.06
2023-05-19T01:17:34.283Z,62.13
2023-05-19T01:20:11.966Z,62.39
2023-05-19T01:23:05.237Z,62.82
2023-05-19T01:25:58.112Z,62.53
2023-05-19T01:28:43.847Z,62.54
2023-05-19T01:31:16.412Z,63.05
2023-05-19T01:33:47.685Z,62.73
2023-05-19T01:36:20.180Z,62.34
2023-05-19T01:38:52.131Z,62.61
2023-05-19T01:41:23.272Z,63.04
2023-05-19T01:43:55.146Z,62.52
2023-05-19T01:46:25.810Z,62.85
2023-05-19T01:48:56.729Z,62.88
2023-05-19T01:51:26.845Z,63.26
2023-05-19T01:53:57.018Z,62.70
2023-05-19T01:56:30.961Z,62.81
2023-05-19T01:59:04.619Z,63.33
2023-05-19T02:01:38.862Z,63.54
2023-05-19T02:04:19.938Z,63.40
2023-05-19T02:06:56.123Z,63.16
2023-05-19T02:09:30.833Z,63.58
2023-05-19T02:12:03.929Z,63.55
2023-05-19T02:14:36.333Z,63.47
2023-05-19T02:17:07.103Z,63.77
2023-05-19T02:19:39.152Z,63.99
2023-05-19T02:22:09.487Z,64.04
2023-05-19T02:24:41.408Z,63.91
2023-05-19T02:27:11.669Z,64.21
2023-05-19T02:29:41.910Z,64.39
2023-05-19T02:32:12.694Z,64.80
2023-05-19T02:34:45.522Z,64.80
2023-05-19T02:37:16.459Z,65.20
2023-05-19T02:39:46.649Z,65.06
2023-05-19T02:42:18.213Z,64.83
2023-05-19T02:44:48.386Z,65.17
2023-05-19T02:47:18.951Z,64.98
2023-05-19T02:49:49.329Z,65.29
2023-05-19T02:52:19.537Z,65.33
2023-05-19T02:54:49.753Z,65.42
2023-05-19T02:57:20.703Z,65.61
2023-05-19T02:59:51.055Z,65.70
2023-05-19T03:02:21.520Z,65.87
2023-05-19T03:04:52.059Z,66.16
2023-05-19T03:07:25.563Z,65.99
2023-05-19T03:09:56.002Z,65.97
2023-05-19T03:12:26.386Z,66.19
2023-05-19T03:14:56.524Z,66.15
2023-05-19T03:17:27.674Z,66.32
2023-05-19T03:19:58.144Z,66.11
2023-05-19T03:22:28.357Z,66.49
2023-05-19T03:24:58.595Z,66.52
2023-05-19T03:27:28.835Z,66.33
2023-05-19T03:29:59.256Z,66.63
2023-05-19T03:32:29.882Z,66.49
2023-05-19T03:35:00.674Z,66.76
2023-05-19T03:37:30.935Z,66.52
2023-05-19T03:40:01.306Z,66.86
2023-05-19T03:42:31.694Z,66.79
2023-05-19T03:45:02.009Z,66.74
2023-05-19T03:47:34.219Z,66.70
2023-05-19T03:50:34.150Z,67.22
2023-05-19T03:53:32.951Z,67.68
2023-05-19T03:56:03.222Z,67.50
2023-05-19T03:58:33.364Z,67.20
2023-05-19T04:01:03.546Z,67.72
2023-05-19T04:03:34.300Z,67.38
2023-05-19T04:06:05.812Z,67.07
2023-05-19T04:08:36.148Z,67.23
2023-05-19T04:11:06.407Z,67.70
2023-05-19T04:13:36.649Z,67.62
2023-05-19T04:16:07.783Z,67.62
2023-05-19T04:18:38.047Z,67.69
2023-05-19T04:21:08.686Z,67.23
2023-05-19T04:23:38.916Z,67.10
2023-05-19T04:26:09.622Z,66.69
2023-05-19T04:28:42.406Z,66.79
2023-05-19T04:31:15.367Z,66.72
2023-05-19T04:33:46.125Z,66.82
2023-05-19T04:36:20.768Z,66.78
2023-05-19T04:38:54.781Z,67.40
2023-05-19T04:41:25.992Z,67.88
2023-05-19T04:43:57.602Z,67.42
2023-05-19T04:46:30.229Z,67.51
2023-05-19T04:49:01.363Z,67.45
2023-05-19T04:51:32.409Z,67.01
2023-05-19T04:54:04.011Z,66.83
2023-05-19T04:56:34.212Z,66.59
2023-05-19T04:59:04.896Z,66.90
2023-05-19T05:01:35.464Z,66.86
2023-05-19T05:04:06.117Z,67.04
2023-05-19T05:06:38.720Z,66.56
2023-05-19T05:09:10.440Z,66.90
2023-05-19T05:11:41.219Z,67.41
2023-05-19T05:14:12.884Z,67.23
2023-05-19T05:16:44.561Z,66.72
2023-05-19T05:19:17.560Z,67.32
2023-05-19T05:21:48.545Z,67.75
2023-05-19T05:24:19.561Z,67.76
2023-05-19T05:26:53.849Z,67.62
2023-05-19T05:29:24.427Z,67.70
2023-05-19T05:31:55.639Z,67.33
2023-05-19T05:34:26.083Z,67.19
2023-05-19T05:36:59.057Z,67.14
2023-05-19T05:39:29.582Z,66.86
2023-05-19T05:41:59.941Z,67.32
2023-05-19T05:44:30.683Z,67.54
2023-05-19T05:47:02.085Z,67.34
2023-05-19T05:49:32.820Z,67.37
2023-05-19T05:52:06.373Z,67.51
2023-05-19T05:54:42.979Z,66.90
2023-05-19T05:57:13.806Z,67.01
2023-05-19T05:59:45.443Z,66.69
2023-05-19T06:02:15.831Z,66.22
2023-05-19T06:04:46.227Z,66.06
2023-05-19T06:07:16.701Z,65.78
2023-05-19T06:09:48.290Z,65.54
2023-05-19T06:12:18.861Z,65.19
2023-05-19T06:14:52.016Z,64.81
2023-05-19T06:17:44.546Z,64.79
2023-05-19T06:20:16.430Z,64.40
2023-05-19T06:22:46.675Z,64.14
2023-05-19T06:25:17.580Z,63.74
2023-05-19T06:27:48.032Z,63.58
2023-05-19T06:30:19.595Z,63.76
2023-05-19T06:33:03.479Z,63.54
2023-05-19T06:35:34.464Z,63.27
2023-05-19T06:38:05.306Z,62.65
2023-05-19T06:40:37.226Z,62.24
2023-05-19T06:43:07.656Z,62.99
2023-05-19T06:45:55.189Z,62.58
2023-05-19T06:48:26.620Z,62.18
2023-05-19T06:50:57.554Z,62.43
2023-05-19T06:53:28.411Z,62.59
2023-05-19T06:56:00.389Z,62.74
2023-05-19T06:58:34.664Z,63.40
2023-05-19T07:01:06.626Z,62.88
2023-05-19T07:03:42.099Z,62.75
2023-05-19T07:06:13.344Z,63.15
2023-05-19T07:08:44.248Z,62.79
2023-05-19T07:11:15.274Z,62.87
2023-05-19T07:13:45.931Z,62.77
2023-05-19T07:16:18.803Z,62.70
2023-05-19T07:18:49.095Z,62.58
2023-05-19T07:21:19.684Z,61.96
2023-05-19T07:23:50.307Z,61.61
2023-05-19T07:26:20.836Z,61.92
2023-05-19T07:28:51.958Z,61.94
2023-05-19T07:31:22.382Z,61.93
2023-05-19T07:33:54.602Z,62.37
2023-05-19T07:36:27.468Z,62.15
2023-05-19T07:38:57.821Z,61.73
2023-05-19T07:41:28.088Z,62.23
2023-05-19T07:43:58.548Z,61.46
2023-05-19T07:46:28.833Z,61.10
2023-05-19T07:48:59.444Z,61.15
2023-05-19T07:51:29.725Z,61.72
2023-05-19T07:53:59.987Z,61.33
2023-05-19T07:56:30.268Z,61.70
2023-05-19T07:59:00.862Z,62.03
2023-05-19T08:01:32.403Z,61.34
2023-05-19T08:04:02.816Z,61.14
2023-05-19T08:06:33.121Z,61.12
2023-05-19T08:09:05.338Z,60.88
2023-05-19T08:11:35.645Z,60.64
2023-05-19T08:14:06.353Z,60.76
2023-05-19T08:16:36.638Z,60.30
2023-05-19T08:19:07.442Z,60.16
2023-05-19T08:21:37.906Z,60.04
2023-05-19T08:24:08.414Z,59.45
2023-05-19T08:26:38.663Z,59.51
2023-05-19T08:29:08.906Z,59.80
2023-05-19T08:31:39.354Z,59.94
2023-05-19T08:34:09.618Z,59.68
2023-05-19T08:36:40.855Z,59.47
2023-05-19T08:39:11.223Z,59.37
2023-05-19T08:41:41.542Z,59.11
2023-05-19T08:44:11.690Z,58.98
2023-05-19T08:46:41.986Z,58.58
2023-05-19T08:49:13.116Z,58.03
2023-05-19T08:51:49.497Z,57.87
2023-05-19T08:54:20.797Z,58.34
2023-05-19T08:56:51.032Z,58.29
2023-05-19T08:59:22.626Z,57.70
2023-05-19T09:01:55.005Z,56.78
2023-05-19T09:04:29.973Z,56.78
2023-05-19T09:07:04.034Z,57.51
2023-05-19T09:09:34.616Z,57.51
2023-05-19T09:12:05.071Z,57.08
2023-05-19T09:14:35.930Z,56.78
2023-05-19T09:17:06.967Z,56.40
2023-05-19T09:19:37.486Z,56.95
2023-05-19T09:22:07.734Z,56.58
2023-05-19T09:24:38.630Z,56.40
2023-05-19T09:27:08.997Z,56.10
2023-05-19T09:29:39.363Z,53.96
2023-05-19T09:32:10.077Z,53.87
2023-05-19T09:34:43.858Z,54.02
2023-05-19T09:37:15.224Z,53.89
2023-05-19T09:39:49.166Z,53.84
2023-05-19T09:42:24.953Z,53.52
2023-05-19T09:45:02.134Z,53.53
2023-05-19T09:47:36.792Z,53.59
2023-05-19T09:50:09.114Z,53.74
2023-05-19T09:52:40.789Z,53.94
2023-05-19T09:55:12.709Z,54.40
2023-05-19T09:57:42.947Z,55.16
2023-05-19T10:00:17.480Z,55.06
2023-05-19T10:07:44.479Z,55.27
2023-05-19T10:10:17.535Z,55.88
2023-05-19T10:12:50.146Z,56.30
2023-05-19T10:15:23.343Z,56.04
2023-05-19T10:17:56.618Z,55.80
2023-05-19T10:20:29.321Z,55.51
2023-05-19T10:23:02.918Z,55.45
2023-05-19T10:25:36.722Z,55.53
2023-05-19T10:28:14.953Z,55.65
2023-05-19T10:30:50.838Z,55.86
2023-05-19T10:33:30.126Z,55.90
2023-05-19T10:36:26.617Z,55.85
2023-05-19T10:39:06.892Z,55.60
2023-05-19T10:41:47.219Z,54.88
2023-05-19T10:44:29.691Z,55.16
2023-05-19T10:47:01.872Z,55.51
2023-05-19T10:49:37.588Z,55.56
2023-05-19T10:52:22.915Z,55.93
2023-05-19T10:54:55.084Z,55.47
2023-05-19T10:57:31.900Z,55.88
2023-05-19T11:00:11.751Z,56.16
2023-05-19T11:02:44.993Z,56.63
2023-05-19T11:05:19.583Z,56.58
2023-05-19T11:08:02.008Z,56.77
2023-05-19T11:10:34.663Z,57.24
2023-05-19T11:13:06.891Z,57.50
2023-05-19T11:15:39.216Z,57.74
2023-05-19T11:18:13.826Z,58.07
2023-05-19T11:20:57.971Z,58.08
2023-05-19T11:23:35.534Z,58.21
2023-05-19T11:26:10.071Z,58.30
2023-05-19T11:28:42.824Z,58.08
2023-05-19T11:31:15.224Z,58.58
2023-05-19T11:33:47.104Z,58.71
2023-05-19T11:36:21.722Z,58.70
2023-05-19T11:38:54.092Z,58.18
2023-05-19T11:41:30.500Z,58.10
2023-05-19T11:44:02.326Z,58.21
2023-05-19T11:46:34.245Z,57.87
2023-05-19T11:49:08.248Z,56.98
2023-05-19T11:51:40.331Z,56.76
2023-05-19T11:54:12.677Z,56.52
2023-05-19T11:56:44.632Z,56.58
2023-05-19T11:59:16.665Z,56.07
2023-05-19T12:01:48.386Z,55.87
2023-05-19T12:04:21.860Z,56.22
2023-05-19T12:06:54.451Z,56.08
2023-05-19T12:09:25.106Z,55.63
2023-05-19T12:11:57.463Z,55.70
2023-05-19T12:14:32.347Z,56.05
2023-05-19T12:17:13.324Z,56.41
2023-05-19T12:19:46.189Z,56.45
2023-05-19T12:22:19.033Z,55.27
2023-05-19T12:24:52.687Z,55.08
2023-05-19T12:27:27.451Z,55.13
2023-05-19T12:30:00.045Z,54.63
2023-05-19T12:32:34.463Z,55.00
2023-05-19T12:35:08.125Z,55.72
2023-05-19T12:37:44.246Z,55.63
2023-05-19T12:40:17.910Z,55.87
2023-05-19T12:42:52.091Z,55.76
2023-05-19T12:45:25.861Z,55.54
2023-05-19T12:47:58.025Z,54.87
2023-05-19T12:50:34.375Z,55.04
2023-05-19T12:53:11.682Z,55.23
2023-05-19T12:55:44.913Z,55.48
2023-05-19T12:58:18.023Z,55.55
2023-05-19T13:00:50.541Z,56.42
2023-05-19T13:03:23.006Z,56.73
2023-05-19T13:05:55.354Z,57.08
2023-05-19T13:08:28.002Z,57.24
2023-05-19T13:10:58.323Z,57.94
2023-05-19T13:13:30.520Z,57.83
2023-05-19T13:16:02.270Z,58.18
2023-05-19T13:18:36.252Z,58.40
2023-05-19T13:21:08.206Z,58.41
2023-05-19T13:23:40.316Z,58.02
2023-05-19T13:26:13.289Z,57.24
2023-05-19T13:28:44.990Z,57.18
2023-05-19T13:31:16.968Z,56.68
2023-05-19T13:33:48.754Z,56.90
2023-05-19T13:36:20.496Z,56.93
2023-05-19T13:38:52.158Z,57.13
2023-05-19T13:41:29.921Z,57.01
2023-05-19T13:44:01.906Z,56.96
2023-05-19T13:46:44.617Z,56.53
2023-05-19T13:49:18.243Z,56.91
2023-05-19T13:51:49.934Z,57.60
2023-05-19T13:54:21.696Z,58.20
2023-05-19T13:56:53.427Z,58.25
2023-05-19T13:59:26.400Z,58.49
2023-05-19T14:01:58.280Z,59.18
2023-05-19T14:04:30.139Z,59.81
2023-05-19T14:07:01.825Z,60.71
2023-05-19T14:09:34.131Z,60.35
2023-05-19T14:12:07.264Z,59.77
2023-05-19T14:14:39.436Z,61.20
2023-05-19T14:17:11.333Z,61.67
2023-05-19T14:19:43.182Z,61.98
2023-05-19T14:22:14.943Z,61.76
2023-05-19T14:24:46.717Z,62.57
2023-05-19T14:27:18.534Z,62.91
2023-05-19T14:29:50.437Z,62.86
2023-05-19T14:32:22.888Z,62.89
2023-05-19T14:34:54.731Z,62.95
2023-05-19T14:37:29.216Z,62.71
2023-05-19T14:40:01.449Z,62.72
2023-05-19T14:42:33.168Z,62.77
2023-05-19T14:45:05.023Z,62.84
2023-05-19T14:47:36.871Z,63.48
2023-05-19T14:50:09.662Z,62.86
2023-05-19T14:52:39.797Z,62.62
2023-05-19T14:55:12.065Z,62.61
2023-05-19T14:57:43.893Z,62.81
2023-05-19T15:00:17.670Z,62.84
2023-05-19T15:02:50.440Z,62.95
2023-05-19T15:05:22.891Z,63.75
2023-05-19T15:07:54.549Z,63.94
2023-05-19T15:10:26.450Z,63.66
2023-05-19T15:13:00.332Z,63.71
2023-05-19T15:15:32.318Z,63.82
2023-05-19T15:18:04.461Z,64.20
2023-05-19T15:20:36.393Z,64.47
2023-05-19T15:23:08.389Z,64.84
2023-05-19T15:25:40.585Z,64.79
2023-05-19T15:28:13.486Z,65.11
2023-05-19T15:30:45.928Z,65.07
2023-05-19T15:33:17.918Z,65.35
2023-05-19T15:35:52.101Z,65.78
2023-05-19T15:38:26.125Z,66.22
2023-05-19T15:40:58.781Z,66.20
2023-05-19T15:43:31.051Z,66.51
2023-05-19T15:46:04.922Z,66.67
2023-05-19T15:48:36.885Z,66.91
2023-05-19T15:51:08.794Z,67.13
2023-05-19T15:53:40.503Z,67.38
2023-05-19T15:56:13.373Z,67.56
2023-05-19T15:58:45.091Z,68.30
2023-05-19T16:01:17.794Z,68.64
2023-05-19T16:03:48.415Z,68.53
2023-05-19T16:06:20.512Z,68.11
2023-05-19T16:08:52.264Z,67.03
2023-05-19T16:11:24.896Z,67.54
2023-05-19T16:13:55.255Z,68.43
2023-05-19T16:16:27.337Z,69.55
2023-05-19T16:19:00.424Z,70.15
2023-05-19T16:21:32.742Z,70.53
2023-05-19T16:24:04.570Z,71.21
2023-05-19T16:26:36.418Z,71.40
2023-05-19T16:29:08.206Z,71.48
2023-05-19T16:31:40.004Z,70.95
2023-05-19T16:34:12.228Z,71.75
2023-05-19T16:36:43.929Z,71.77
2023-05-19T16:39:15.786Z,73.15
2023-05-19T16:41:48.227Z,73.00
2023-05-19T16:44:19.953Z,73.55
2023-05-19T16:46:51.697Z,73.66
2023-05-19T16:49:23.511Z,73.81
2023-05-19T16:51:55.806Z,73.16
2023-05-19T16:54:29.198Z,73.49
2023-05-19T16:57:01.347Z,74.09
2023-05-19T16:59:33.427Z,74.34
2023-05-19T17:02:05.484Z,73.99
2023-05-19T17:04:37.265Z,74.79
2023-05-19T17:07:09.987Z,74.93
2023-05-19T17:09:41.996Z,74.60
2023-05-19T17:12:13.992Z,74.36
2023-05-19T17:14:45.733Z,74.59
2023-05-19T17:17:17.711Z,75.91
2023-05-19T17:19:49.572Z,75.52
2023-05-19T17:22:21.438Z,75.13
2023-05-19T17:24:53.512Z,75.10
2023-05-19T17:27:25.288Z,75.68
2023-05-19T17:29:57.066Z,76.02
2023-05-19T17:32:35.697Z,75.78
2023-05-19T17:35:09.043Z,76.43
2023-05-19T17:37:40.867Z,76.26
2023-05-19T17:40:14.904Z,76.89
2023-05-19T17:42:46.878Z,77.41
2023-05-19T17:45:18.834Z,77.17
2023-05-19T17:47:51.492Z,76.42
2023-05-19T17:50:21.669Z,77.72
2023-05-19T17:52:54.430Z,78.10
2023-05-19T17:55:29.821Z,77.45
2023-05-19T17:58:02.786Z,78.44
2023-05-19T18:00:34.167Z,78.13
2023-05-19T18:03:07.976Z,77.93
2023-05-19T18:05:43.131Z,78.44
2023-05-19T18:08:16.630Z,78.47
2023-05-19T18:10:51.561Z,78.56
2023-05-19T18:13:23.669Z,78.50
2023-05-19T18:15:57.106Z,79.60
2023-05-19T18:18:29.401Z,79.46
2023-05-19T18:21:01.534Z,79.28
2023-05-19T18:23:33.635Z,79.87
2023-05-19T18:26:05.339Z,79.84
2023-05-19T18:28:37.112Z,79.87
2023-05-19T18:31:15.573Z,79.46
2023-05-19T18:33:48.701Z,80.20
2023-05-19T18:36:21.197Z,80.51
2023-05-19T18:38:55.064Z,80.69
2023-05-19T18:41:27.188Z,80.31
2023-05-19T18:43:59.357Z,80.45
2023-05-19T18:46:31.127Z,80.62
2023-05-19T18:49:03.808Z,80.86
2023-05-19T18:51:36.296Z,81.00
2023-05-19T18:54:08.404Z,81.54
2023-05-19T18:56:40.116Z,81.61
2023-05-19T18:59:12.390Z,81.76
2023-05-19T19:01:45.133Z,81.70
2023-05-19T19:04:18.217Z,81.90
2023-05-19T19:06:51.231Z,81.87
2023-05-19T19:09:22.913Z,82.58
2023-05-19T19:11:54.707Z,82.67
2023-05-19T19:14:26.573Z,82.72
2023-05-19T19:16:58.552Z,82.71
2023-05-19T19:19:30.949Z,82.51
2023-05-19T19:22:03.180Z,82.50
2023-05-19T19:24:34.959Z,82.23
2023-05-19T19:27:07.388Z,82.90
2023-05-19T19:29:39.277Z,82.76
2023-05-19T19:32:14.202Z,83.06
2023-05-19T19:34:46.121Z,82.86
2023-05-19T19:37:17.900Z,83.25
2023-05-19T19:39:49.806Z,83.31
2023-05-19T19:42:21.782Z,83.74
2023-05-19T19:44:57.009Z,83.74
2023-05-19T19:47:29.201Z,83.39
2023-05-19T19:50:05.500Z,82.96
2023-05-19T19:52:37.260Z,83.57
2023-05-19T19:55:10.977Z,82.95
2023-05-19T19:57:44.935Z,83.97
2023-05-19T20:00:19.851Z,84.47
2023-05-19T20:03:04.330Z,84.52
2023-05-19T20:05:39.481Z,84.27
2023-05-19T20:08:11.746Z,84.30
2023-05-19T20:10:44.246Z,83.95
2023-05-19T20:13:16.261Z,83.99
2023-05-19T20:15:48.814Z,84.06
2023-05-19T20:18:20.632Z,84.67
2023-05-19T20:20:52.411Z,84.50
2023-05-19T20:23:24.584Z,84.71
2023-05-19T20:26:11.077Z,84.92
2023-05-19T20:28:43.974Z,85.33
2023-05-19T20:31:15.630Z,85.03
2023-05-19T20:33:47.389Z,84.99
2023-05-19T20:36:19.109Z,85.30
2023-05-19T20:38:51.762Z,85.33
2023-05-19T20:41:23.520Z,85.56
2023-05-19T20:43:55.248Z,85.54
2023-05-19T20:46:26.993Z,85.22
2023-05-19T20:48:58.761Z,84.99
2023-05-19T20:51:30.505Z,85.31
2023-05-19T20:54:02.152Z,86.06
2023-05-19T20:56:33.838Z,86.52
2023-05-19T20:59:05.511Z,86.03
2023-05-19T21:01:37.348Z,85.94
2023-05-19T21:04:09.257Z,85.90
2023-05-19T21:06:41.059Z,85.85
2023-05-19T21:09:12.834Z,86.13
2023-05-19T21:11:45.884Z,86.02
2023-05-19T21:14:17.557Z,86.45
2023-05-19T21:16:53.809Z,86.73
2023-05-19T21:19:25.930Z,86.69
2023-05-19T21:21:57.903Z,87.04
2023-05-19T21:24:30.984Z,87.00
2023-05-19T21:27:03.133Z,87.10
2023-05-19T21:29:35.088Z,87.29
2023-05-19T21:32:08.165Z,87.68
2023-05-19T21:34:40.484Z,87.61
2023-05-19T21:37:12.294Z,87.82
2023-05-19T21:39:44.218Z,87.86
2023-05-19T21:42:16.128Z,87.82
2023-05-19T21:44:47.857Z,87.04
2023-05-19T21:47:19.880Z,87.70
2023-05-19T21:49:51.751Z,87.92
2023-05-19T21:52:23.494Z,88.82
2023-05-19T21:54:56.122Z,88.34
2023-05-19T21:57:27.900Z,87.95
2023-05-19T21:59:59.676Z,88.05
2023-05-19T22:02:31.324Z,88.14
2023-05-19T22:05:03.144Z,88.06
2023-05-19T22:07:35.038Z,87.46
2023-05-19T22:10:08.187Z,87.74
2023-05-19T22:12:40.083Z,87.52
2023-05-19T22:15:15.718Z,87.78
2023-05-19T22:17:47.457Z,88.22
2023-05-19T22:20:19.394Z,87.73
2023-05-19T22:22:51.143Z,88.13
2023-05-19T22:25:23.079Z,87.88
2023-05-19T22:27:55.020Z,88.58
2023-05-19T22:30:27.157Z,88.45
2023-05-19T22:32:58.862Z,88.24
2023-05-19T22:35:30.756Z,88.60
2023-05-19T22:38:02.375Z,88.77
2023-05-19T22:40:34.890Z,88.39
2023-05-19T22:43:06.729Z,88.99
2023-05-19T22:45:39.212Z,89.20
2023-05-19T22:48:11.601Z,89.00
2023-05-19T22:50:43.392Z,89.26
2023-05-19T22:53:15.157Z,89.10
2023-05-19T22:55:47.577Z,89.86
2023-05-19T22:58:19.322Z,90.26
2023-05-19T23:00:51.352Z,90.43
2023-05-19T23:03:23.006Z,90.80
2023-05-19T23:05:55.213Z,91.17
2023-05-19T23:08:27.173Z,91.60
2023-05-19T23:11:03.165Z,92.02
2023-05-19T23:13:34.821Z,92.24
2023-05-19T23:16:07.627Z,92.65
2023-05-19T23:18:37.689Z,93.15
2023-05-19T23:21:09.338Z,93.45
2023-05-19T23:23:41.094Z,93.60
2023-05-19T23:26:14.235Z,93.46
2023-05-19T23:28:45.942Z,93.99
2023-05-19T23:31:17.927Z,94.38
2023-05-19T23:33:49.760Z,94.67
2023-05-19T23:36:21.720Z,94.70
2023-05-19T23:38:53.469Z,94.91
2023-05-19T23:41:25.663Z,95.57
2023-05-19T23:43:57.254Z,95.73
2023-05-19T23:46:28.933Z,95.97
2023-05-19T23:49:00.626Z,96.15
2023-05-19T23:51:32.283Z,96.56
2023-05-19T23:54:03.874Z,96.94
2023-05-19T23:56:35.526Z,96.95
2023-05-19T23:59:07.135Z,97.09
